首页
METAR-TAF:

METAR-TAF

机场 :

Mayo, 育康省, 加拿大

纬度: 63-37N, 经度: 135-52W, 海拔: 504米

当前天气观测

该预报发布于24分钟前的23:00 UTC
风速4节,风向东南,在西转西南之间变化
温度 15°C
湿度 55%
气压 1021 hPa
能見度: 32.2公里
多云层高于6000英尺, 积雨云.
多云层高于9000英尺

METAR: CYMA 272300Z 13004KT 100V250 20SM BKN060CB BKN090 15/06 A3016 RMK CB5AC1 SLP231 DENSITY ALT 1800FT

时间: 16:24 (23:24 UTC)

预报

该预报发布于4小时和20分钟前的19:04 UTC
预报有效从27日的 19点(UTC)到 28日的 06点(UTC)
风速3节,风向多变
能見度: 10公里
散云层高于600英尺
多云层高于1500英尺
小雨
成为
从 27日的 19点(UTC)到 27日的 20点(UTC)
能見度: 10公里
多云层高于4000英尺
从 27日的 2000点(UTC)
风速5节,风向东北
能見度: 10公里
多云层高于3000英尺
短暂存在
从 27日的 20点(UTC)到 28日的 02点(UTC)
能見度: 10公里
阴天层高于2000英尺
小阵雨
从 28日的 0200点(UTC)
风速5节,风向东北
能見度: 10公里
多云层高于2000英尺

TAF: CYMA 271904Z 2719/2806 VRB03KT P6SM -RA SCT006 BKN015 BECMG 2719/2720 P6SM NSW BKN040 FM272000 05005KT P6SM BKN030 TEMPO 2720/2802 P6SM -SHRA OVC020 FM280200 05005KT P6SM BKN020 RMK NXT FCST BY 280000Z

超过4000个机场的气象观测和天气预报(METAR&TAF报告)。

可查询的气象台以黄色和红色小点在地图上表示。

将鼠标移到小点上方,可查看气象台名称。

然后点击查看天气观测和预报。

如需切换地图:点击带黑十字的绿色按钮放大地图;点击带横线的绿色按钮缩小地图;或者点击绿色箭头查看邻近地区的地图。


METAR-TAF: